Time;durP1;ratioP1;P1;durP2;ratioP2;P2;SDS_P1;SDS_P2;PMS_P1;PMS_P2;Temp;Humidity;BMP_temperature;BMP_pressure;BME280_temperature;BME280_humidity;BME280_pressure;Samples;Min_cycle;Max_cycle;Signal;HPM_P1;HPM_P2
2022/07/14 00:02:20;;;;;;;5.07;1.10;;;;;;;20.58;nan;100683.25;5033112;28;20045;-74
2022/07/14 00:04:46;;;;;;;6.68;1.08;;;;;;;20.58;nan;100700.09;5029078;28;20033;-74
2022/07/14 00:07:11;;;;;;;5.60;1.10;;;;;;;;;;5026155;28;20036;-73
2022/07/14 00:09:37;;;;;;;6.43;1.40;;;;;;;20.34;nan;100736.69;5032617;28;20037;-73
2022/07/14 00:12:03;;;;;;;7.13;1.10;;;;;;;20.40;nan;100747.06;5025553;28;20472;-73
2022/07/14 00:14:29;;;;;;;8.35;1.20;;;;;;;20.37;nan;100741.47;5029795;28;20064;-72
2022/07/14 00:16:54;;;;;;;5.40;1.00;;;;;;;20.28;nan;100743.97;5029740;28;20033;-73
2022/07/14 00:19:20;;;;;;;4.43;1.33;;;;;;;20.21;nan;100737.34;5030338;28;20041;-73
2022/07/14 00:21:45;;;;;;;3.00;1.15;;;;;;;20.13;nan;100755.56;5030332;28;20034;-75
2022/07/14 00:24:11;;;;;;;7.10;1.20;;;;;;;20.08;nan;100728.88;5029745;28;20061;-74
2022/07/14 00:26:41;;;;;;;3.22;1.15;;;;;;;20.07;nan;100746.00;5029917;28;20028;-74
2022/07/14 00:29:07;;;;;;;;;;;;;;;20.02;nan;100748.72;5031515;28;20553;-72
2022/07/14 00:31:32;;;;;;;2.58;1.23;;;;;;;20.02;nan;100727.34;5029983;28;20090;-72
2022/07/14 00:33:58;;;;;;;7.70;1.60;;;;;;;20.03;nan;100749.53;5020671;28;20045;-72
2022/07/14 00:36:26;;;;;;;5.55;1.27;;;;;;;19.98;nan;100745.00;5030927;28;20034;-72
2022/07/14 00:38:52;;;;;;;5.88;1.20;;;;;;;19.97;nan;100748.78;5030544;28;20391;-74
2022/07/14 00:41:18;;;;;;;2.47;1.50;;;;;;;;;;5024195;28;20043;-73
2022/07/14 00:43:43;;;;;;;2.13;1.13;;;;;;;19.87;nan;100749.66;5031248;28;20357;-73
2022/07/14 00:46:08;;;;;;;7.50;1.30;;;;;;;19.75;nan;100800.78;5030192;28;20364;-71
2022/07/14 00:48:34;;;;;;;4.30;1.35;;;;;;;19.63;nan;100752.16;5030839;28;20127;-72
2022/07/14 00:51:00;;;;;;;6.82;1.15;;;;;;;19.62;nan;100763.94;5030584;28;20059;-70
2022/07/14 00:53:25;;;;;;;5.07;1.40;;;;;;;19.54;nan;100751.16;5031476;28;20065;-75
2022/07/14 00:55:51;;;;;;;3.10;1.42;;;;;;;19.38;nan;100730.97;5030216;28;20109;-73
2022/07/14 00:58:16;;;;;;;5.75;1.13;;;;;;;19.39;nan;100732.53;5021215;28;20037;-72
2022/07/14 01:00:42;;;;;;;6.60;1.70;;;;;;;19.32;nan;100764.88;5030998;28;20041;-73
2022/07/14 01:03:07;;;;;;;4.72;1.35;;;;;;;19.15;nan;100804.47;5027127;28;20116;-73
2022/07/14 01:05:33;;;;;;;8.40;1.35;;;;;;;19.00;nan;100760.75;5030679;28;20057;-73
2022/07/14 01:07:59;;;;;;;3.30;1.40;;;;;;;18.89;nan;100753.81;5032212;28;20037;-72
2022/07/14 01:10:25;;;;;;;4.28;1.10;;;;;;;18.73;nan;100747.72;5030073;28;20071;-72
2022/07/14 01:12:50;;;;;;;3.17;1.20;;;;;;;18.48;nan;100717.38;5029645;28;20056;-72
2022/07/14 01:15:18;;;;;;;7.60;1.40;;;;;;;18.52;nan;100804.84;5029665;28;20052;-74
2022/07/14 01:17:47;;;;;;;3.25;1.48;;;;;;;18.48;nan;100756.56;5047713;28;20065;-74
2022/07/14 01:20:13;;;;;;;2.50;1.20;;;;;;;18.23;nan;100715.53;5030824;28;20029;-74
2022/07/14 01:22:38;;;;;;;3.97;1.45;;;;;;;18.20;nan;100726.75;5030044;28;20087;-74
2022/07/14 01:25:06;;;;;;;4.63;1.27;;;;;;;;;;5029411;28;20025;-75
2022/07/14 01:27:36;;;;;;;4.28;1.33;;;;;;;18.07;nan;100732.59;5029188;28;20366;-74
2022/07/14 01:30:02;;;;;;;4.65;1.40;;;;;;;18.02;nan;100772.56;5028962;28;20419;-74
2022/07/14 01:32:28;;;;;;;4.55;2.03;;;;;;;17.98;nan;100787.47;5030943;28;20064;-73
2022/07/14 01:34:54;;;;;;;2.63;1.35;;;;;;;17.94;nan;100786.44;5030288;28;20061;-73
2022/07/14 01:37:20;;;;;;;4.63;1.25;;;;;;;17.89;nan;100762.44;5032654;28;20037;-73
2022/07/14 01:39:46;;;;;;;4.50;1.30;;;;;;;17.83;nan;100773.06;5030712;28;20117;-73
2022/07/14 01:42:12;;;;;;;6.18;1.30;;;;;;;17.82;nan;100738.72;5030554;28;20033;-72
2022/07/14 01:44:37;;;;;;;5.88;1.15;;;;;;;;;;5030400;28;20442;-72
2022/07/14 01:47:02;;;;;;;3.20;1.27;;;;;;;;;;5031855;28;20080;-72
2022/07/14 01:49:28;;;;;;;3.10;1.30;;;;;;;;;;5035182;28;20041;-73
2022/07/14 01:51:53;;;;;;;8.10;1.45;;;;;;;;;;5033761;28;20034;-72
2022/07/14 01:54:19;;;;;;;6.40;1.93;;;;;;;;;;5033256;28;20030;-73
2022/07/14 01:56:44;;;;;;;7.90;1.37;;;;;;;;;;5047713;28;20293;-73
2022/07/14 01:59:10;;;;;;;1.85;1.40;;;;;;;;;;5032541;28;20282;-72
2022/07/14 02:01:41;;;;;;;3.10;1.13;;;;;;;;;;5049164;28;20118;-74
2022/07/14 02:04:11;;;;;;;9.77;1.70;;;;;;;;;;5033031;28;20168;-73
2022/07/14 02:06:43;;;;;;;;;;;;;;;17.24;nan;100768.09;5034335;28;20036;-73
2022/07/14 02:09:09;;;;;;;3.03;1.60;;;;;;;;;;5032135;28;19920;-72
2022/07/14 02:14:18;;;;;;;5.22;1.25;;;;;;;;;;5031588;28;20057;-72
2022/07/14 02:16:44;;;;;;;4.83;1.27;;;;;;;;;;5034007;28;20060;-66
2022/07/14 02:19:09;;;;;;;1.40;1.30;;;;;;;;;;5035752;28;20045;-66
2022/07/14 02:21:34;;;;;;;1.50;1.27;;;;;;;;;;5031364;28;20609;-66
2022/07/14 02:23:59;;;;;;;8.00;1.77;;;;;;;;;;5045893;28;20471;-65
2022/07/14 02:26:25;;;;;;;4.07;1.83;;;;;;;;;;5033069;28;20278;-65
2022/07/14 02:28:50;;;;;;;4.68;1.50;;;;;;;;;;5035344;28;20764;-65
2022/07/14 02:31:15;;;;;;;5.00;1.40;;;;;;;;;;5033197;28;20395;-66
2022/07/14 02:33:40;;;;;;;5.55;1.30;;;;;;;;;;5032613;28;20316;-67
2022/07/14 02:36:06;;;;;;;6.13;1.50;;;;;;;;;;5031827;28;20074;-66
2022/07/14 02:38:32;;;;;;;6.32;1.50;;;;;;;16.55;nan;100838.13;5029851;28;20283;-65
2022/07/14 02:40:58;;;;;;;2.45;1.48;;;;;;;;;;5033049;28;20049;-66
2022/07/14 02:43:23;;;;;;;2.67;1.73;;;;;;;;;;5032854;28;20064;-66
2022/07/14 02:45:48;;;;;;;6.13;1.70;;;;;;;;;;5032305;28;20175;-68
2022/07/14 02:48:14;;;;;;;3.15;1.58;;;;;;;;;;5031326;28;20714;-66
2022/07/14 02:50:40;;;;;;;3.13;1.70;;;;;;;;;;5034933;28;20029;-66
2022/07/14 02:53:05;;;;;;;4.25;1.90;;;;;;;;;;5047765;28;20068;-67
2022/07/14 02:55:34;;;;;;;4.13;2.20;;;;;;;;;;5031933;28;20029;-67
2022/07/14 02:57:59;;;;;;;5.07;2.40;;;;;;;;;;5033030;28;20059;-67
2022/07/14 03:00:24;;;;;;;9.73;2.40;;;;;;;;;;5046423;28;20495;-66
2022/07/14 03:02:49;;;;;;;5.82;2.78;;;;;;;;;;5032501;28;20309;-67
2022/07/14 03:05:16;;;;;;;2.80;2.53;;;;;;;;;;5032668;28;20037;-67
2022/07/14 03:07:41;;;;;;;15.13;3.65;;;;;;;;;;5031579;28;20292;-67
2022/07/14 03:10:07;;;;;;;8.63;3.03;;;;;;;;;;5032414;28;20441;-67
2022/07/14 03:12:32;;;;;;;7.13;3.17;;;;;;;;;;5032144;28;20271;-67
2022/07/14 03:14:57;;;;;;;9.10;3.47;;;;;;;;;;5032445;28;20045;-66
2022/07/14 03:17:23;;;;;;;10.48;3.03;;;;;;;;;;5031394;28;20633;-67
2022/07/14 03:19:49;;;;;;;7.15;3.05;;;;;;;;;;5032426;28;20060;-68
2022/07/14 03:22:14;;;;;;;8.48;2.72;;;;;;;;;;5028351;28;20050;-67
2022/07/14 03:24:39;;;;;;;4.80;2.72;;;;;;;;;;5032098;28;20137;-67
2022/07/14 03:27:05;;;;;;;7.33;2.83;;;;;;;;;;5031919;28;20053;-66
2022/07/14 03:29:30;;;;;;;5.77;2.93;;;;;;;;;;5035883;28;20771;-67
2022/07/14 03:31:55;;;;;;;7.90;3.00;;;;;;;;;;5047027;28;20041;-66
2022/07/14 03:34:21;;;;;;;4.27;2.50;;;;;;;;;;5030329;28;20068;-66
2022/07/14 03:36:46;;;;;;;8.65;3.08;;;;;;;;;;5031207;28;20060;-66
2022/07/14 03:39:11;;;;;;;6.87;2.70;;;;;;;;;;5031397;28;20522;-67
2022/07/14 03:41:36;;;;;;;4.87;2.67;;;;;;;;;;5030527;28;20305;-66
2022/07/14 03:44:02;;;;;;;4.03;2.67;;;;;;;;;;5031814;28;20760;-65
2022/07/14 03:46:27;;;;;;;4.13;2.30;;;;;;;;;;5031624;28;20279;-68
2022/07/14 03:48:52;;;;;;;6.10;2.58;;;;;;;15.09;nan;100843.13;5029391;28;20475;-67
2022/07/14 03:51:18;;;;;;;8.88;2.63;;;;;;;;;;5031589;28;20475;-67
2022/07/14 03:53:43;;;;;;;7.70;2.20;;;;;;;;;;5032113;28;20040;-66
2022/07/14 03:56:09;;;;;;;4.83;2.17;;;;;;;;;;5030412;28;20052;-67
2022/07/14 03:58:34;;;;;;;4.83;2.13;;;;;;;15.17;nan;100876.38;5027942;28;20454;-67
2022/07/14 04:00:59;;;;;;;5.03;2.38;;;;;;;;;;5026513;28;20366;-67
2022/07/14 04:03:25;;;;;;;4.43;2.50;;;;;;;;;;5042277;28;20487;-66
2022/07/14 04:05:50;;;;;;;6.32;2.08;;;;;;;;;;5030722;28;20199;-67
2022/07/14 04:08:15;;;;;;;11.23;2.70;;;;;;;;;;5030078;28;20099;-68
2022/07/14 04:10:40;;;;;;;9.75;3.33;;;;;;;;;;5029329;28;20279;-66
2022/07/14 04:13:06;;;;;;;8.07;2.40;;;;;;;;;;5030244;28;20044;-67
2022/07/14 04:15:31;;;;;;;7.07;2.30;;;;;;;;;;5031271;28;20305;-65
2022/07/14 04:17:57;;;;;;;6.75;2.30;;;;;;;;;;5025713;28;20365;-67
2022/07/14 04:20:22;;;;;;;8.45;2.22;;;;;;;;;;5032698;28;20025;-68
2022/07/14 04:22:48;;;;;;;3.72;2.33;;;;;;;;;;5030398;28;20491;-66
2022/07/14 04:25:13;;;;;;;6.75;2.30;;;;;;;;;;5045779;28;20489;-65
2022/07/14 04:27:39;;;;;;;10.57;2.40;;;;;;;;;;5030037;28;20332;-66
2022/07/14 04:30:05;;;;;;;13.13;2.70;;;;;;;;;;5044762;28;20037;-66
2022/07/14 04:32:30;;;;;;;8.82;2.63;;;;;;;;;;5042959;28;20049;-67
2022/07/14 04:34:56;;;;;;;4.03;2.20;;;;;;;;;;5028095;28;20053;-66
2022/07/14 04:37:21;;;;;;;3.63;2.28;;;;;;;;;;5028037;28;20034;-67
2022/07/14 04:39:46;;;;;;;3.72;2.20;;;;;;;;;;5024930;28;20033;-68
2022/07/14 04:42:12;;;;;;;3.13;2.03;;;;;;;16.68;nan;100876.78;5043875;28;20040;-66
2022/07/14 04:44:37;;;;;;;9.10;2.05;;;;;;;;;;5028556;28;20263;-67
2022/07/14 04:47:02;;;;;;;5.63;2.50;;;;;;;;;;5029975;28;20033;-66
2022/07/14 04:52:12;;;;;;;6.70;2.17;;;;;;;;;;5033080;28;20278;-66
2022/07/14 04:54:37;;;;;;;6.50;1.80;;;;;;;;;;5030096;28;20088;-68
2022/07/14 04:57:03;;;;;;;7.35;2.03;;;;;;;;;;5030127;28;20096;-66
2022/07/14 04:59:29;;;;;;;8.57;2.40;;;;;;;;;;5029706;28;20424;-66
2022/07/14 05:01:54;;;;;;;4.18;1.90;;;;;;;;;;5029233;28;20040;-68
2022/07/14 05:04:20;;;;;;;8.82;2.03;;;;;;;;;;5039970;28;20042;-67
2022/07/14 05:06:46;;;;;;;7.63;2.70;;;;;;;;;;5030090;28;20048;-66
2022/07/14 05:09:13;;;;;;;7.55;2.20;;;;;;;18.03;nan;100902.88;5044009;28;20038;-66
2022/07/14 05:11:39;;;;;;;5.85;2.05;;;;;;;;;;5029484;28;20045;-67
2022/07/14 05:14:05;;;;;;;5.72;1.70;;;;;;;;;;5045907;28;20037;-66
2022/07/14 05:16:30;;;;;;;7.55;2.10;;;;;;;;;;5028884;28;20036;-65
2022/07/14 05:18:56;;;;;;;5.97;2.10;;;;;;;18.57;nan;100834.97;5030741;28;20033;-68
2022/07/14 05:21:21;;;;;;;4.35;1.90;;;;;;;;;;5031290;28;20064;-70
2022/07/14 05:23:47;;;;;;;3.42;2.00;;;;;;;;;;5034016;28;20102;-69
2022/07/14 05:26:13;;;;;;;4.25;1.85;;;;;;;18.93;nan;100853.63;5034051;28;20033;-70
2022/07/14 05:28:38;;;;;;;7.03;2.20;;;;;;;;;;5032223;28;20044;-71
2022/07/14 05:31:03;;;;;;;3.75;1.95;;;;;;;;;;5034573;28;20037;-70
2022/07/14 05:33:35;;;;;;;5.20;1.92;;;;;;;19.24;nan;100854.38;5031368;28;20044;-73
2022/07/14 05:36:01;;;;;;;7.60;2.10;;;;;;;19.34;nan;100854.31;5028117;28;20041;-73
2022/07/14 05:38:27;;;;;;;4.32;2.05;;;;;;;19.40;nan;100889.84;5032371;28;20029;-71
2022/07/14 05:40:53;;;;;;;3.10;1.83;;;;;;;19.55;nan;100863.06;5031457;28;20052;-70
2022/07/14 05:43:19;;;;;;;6.38;2.22;;;;;;;;;;5032946;28;20156;-71
2022/07/14 05:45:45;;;;;;;3.53;2.00;;;;;;;19.72;nan;100816.53;5032441;28;20120;-71
2022/07/14 05:48:10;;;;;;;5.70;1.90;;;;;;;19.85;nan;100853.34;5033135;28;20487;-71
2022/07/14 05:50:36;;;;;;;11.63;1.95;;;;;;;19.93;nan;100846.63;5032957;28;20044;-72
2022/07/14 05:53:01;;;;;;;5.32;1.92;;;;;;;20.04;nan;100861.53;5032748;28;20163;-71
2022/07/14 05:55:27;;;;;;;4.57;1.50;;;;;;;20.16;nan;100845.94;5032214;28;20029;-71
2022/07/14 05:57:52;;;;;;;4.28;1.50;;;;;;;20.22;nan;100854.72;5033509;28;20098;-70
2022/07/14 06:00:17;;;;;;;2.28;1.70;;;;;;;20.30;nan;100858.69;5031030;28;20029;-70
2022/07/14 06:02:44;;;;;;;3.60;1.67;;;;;;;20.38;nan;100866.91;5030686;28;20041;-70
2022/07/14 06:05:10;;;;;;;5.43;1.75;;;;;;;20.41;nan;100865.56;5030363;28;20037;-70
2022/07/14 06:07:38;;;;;;;10.32;2.20;;;;;;;20.53;nan;100865.19;5050303;28;20418;-72
2022/07/14 06:10:05;;;;;;;8.73;1.60;;;;;;;20.63;nan;100864.34;5045573;28;20044;-72
2022/07/14 06:12:32;;;;;;;2.67;1.70;;;;;;;20.68;nan;100865.09;5032231;28;20057;-71
2022/07/14 06:14:58;;;;;;;4.07;1.58;;;;;;;20.77;nan;100874.13;5032736;28;20037;-71
2022/07/14 06:17:23;;;;;;;6.85;1.60;;;;;;;20.81;nan;100867.13;5032709;28;20052;-70
2022/07/14 06:19:48;;;;;;;5.43;1.73;;;;;;;20.93;nan;100885.50;5032846;28;20036;-70
2022/07/14 06:22:14;;;;;;;4.07;1.85;;;;;;;20.97;nan;100853.59;5032645;28;20057;-73
2022/07/14 06:24:41;;;;;;;7.90;1.77;;;;;;;21.09;nan;100864.69;5033960;28;20030;-71
2022/07/14 06:27:07;;;;;;;7.95;1.88;;;;;;;21.09;nan;100925.50;5034558;28;20026;-71
2022/07/14 06:29:32;;;;;;;3.33;1.73;;;;;;;21.07;nan;100850.00;5034295;28;20414;-71
2022/07/14 06:31:58;;;;;;;3.33;1.90;;;;;;;21.20;nan;100866.19;5033551;28;20395;-71
2022/07/14 06:34:23;;;;;;;3.92;1.92;;;;;;;;;;5033370;28;20043;-72
2022/07/14 06:36:49;;;;;;;7.38;2.25;;;;;;;21.51;nan;100886.53;5034660;28;20040;-72
2022/07/14 06:39:14;;;;;;;5.80;1.60;;;;;;;21.58;nan;100873.56;5034236;28;20037;-71
2022/07/14 06:41:41;;;;;;;7.32;1.80;;;;;;;21.69;nan;100869.66;5049881;28;20021;-76
2022/07/14 06:44:06;;;;;;;6.15;1.92;;;;;;;21.77;nan;100873.59;5033513;28;20047;-71
2022/07/14 06:46:34;;;;;;;2.40;1.70;;;;;;;21.88;nan;100875.88;5033379;28;20487;-72
2022/07/14 06:49:00;;;;;;;5.95;2.00;;;;;;;21.94;nan;100886.50;5034573;28;20444;-72
2022/07/14 06:51:26;;;;;;;6.10;1.98;;;;;;;22.08;nan;100872.09;5033918;28;20060;-72
2022/07/14 06:53:52;;;;;;;6.00;1.90;;;;;;;22.17;nan;100869.56;5033409;28;20029;-72
2022/07/14 06:56:18;;;;;;;2.65;1.70;;;;;;;;;;5033803;28;20029;-73
2022/07/14 06:58:43;;;;;;;4.32;1.55;;;;;;;;;;5033156;28;20136;-74
2022/07/14 07:01:08;;;;;;;5.20;1.60;;;;;;;22.36;nan;100866.06;5033228;28;20033;-73
2022/07/14 07:03:34;;;;;;;3.28;1.60;;;;;;;22.44;nan;100854.69;5031084;28;20082;-73
2022/07/14 07:08:43;;;;;;;3.38;1.67;;;;;;;22.59;nan;100859.00;5031715;28;20041;-72
2022/07/14 07:11:09;;;;;;;1.77;1.58;;;;;;;22.68;nan;100913.59;5032580;28;20037;-72
2022/07/14 07:13:35;;;;;;;6.50;1.80;;;;;;;22.66;nan;100875.53;5034108;28;20022;-71
2022/07/14 07:16:08;;;;;;;3.38;2.17;;;;;;;22.83;nan;100856.16;5034106;28;20113;-74
2022/07/14 07:18:34;;;;;;;8.88;1.63;;;;;;;22.92;nan;100867.81;5049182;28;20095;-73
2022/07/14 07:21:01;;;;;;;3.97;1.60;;;;;;;22.87;nan;100866.03;5034013;28;20197;-73
2022/07/14 07:23:26;;;;;;;3.53;1.90;;;;;;;23.04;nan;100835.13;5033464;28;20037;-72
2022/07/14 07:25:52;;;;;;;7.15;1.73;;;;;;;23.19;nan;100842.88;5032459;28;20032;-74
2022/07/14 07:28:18;;;;;;;6.38;1.70;;;;;;;23.27;nan;100860.19;5033210;28;20080;-73
2022/07/14 07:30:43;;;;;;;5.57;1.90;;;;;;;23.34;nan;100839.09;5032820;28;20053;-73
2022/07/14 07:33:08;;;;;;;4.22;1.60;;;;;;;23.42;nan;100838.41;5030697;28;20052;-72
2022/07/14 07:35:34;;;;;;;4.90;1.65;;;;;;;23.49;nan;100846.84;5033778;28;20037;-73
2022/07/14 07:38:00;;;;;;;7.70;2.47;;;;;;;23.57;nan;100810.41;5032083;28;20034;-72
2022/07/14 07:40:26;;;;;;;5.40;1.40;;;;;;;23.69;nan;100813.34;5030136;28;20044;-71
2022/07/14 07:42:51;;;;;;;5.20;1.48;;;;;;;23.77;nan;100844.13;5032472;28;20029;-70
2022/07/14 07:45:17;;;;;;;3.15;1.58;;;;;;;23.82;nan;100854.00;5032558;28;20392;-70
2022/07/14 07:47:43;;;;;;;4.53;1.60;;;;;;;23.94;nan;100814.72;5032586;28;20041;-70
2022/07/14 07:50:10;;;;;;;3.53;1.40;;;;;;;23.97;nan;100808.72;5032752;28;20108;-70
2022/07/14 07:52:37;;;;;;;6.50;1.70;;;;;;;24.12;nan;100807.56;5031453;28;20075;-70
2022/07/14 07:55:08;;;;;;;3.72;1.70;;;;;;;24.25;nan;100840.88;5028939;28;20120;-73
2022/07/14 07:57:34;;;;;;;2.90;1.38;;;;;;;24.31;nan;100815.44;5031895;28;20033;-73
2022/07/14 08:00:00;;;;;;;3.90;1.70;;;;;;;24.40;nan;100796.66;5030990;28;20045;-72
2022/07/14 08:02:26;;;;;;;3.45;1.50;;;;;;;24.52;nan;100823.03;5029618;28;20037;-71
2022/07/14 08:04:52;;;;;;;3.22;1.60;;;;;;;24.57;nan;100825.59;5027830;28;20879;-72
2022/07/14 08:07:18;;;;;;;5.05;1.48;;;;;;;24.73;nan;100820.59;5031416;28;20032;-72
2022/07/14 08:09:44;;;;;;;5.10;1.52;;;;;;;24.83;nan;100837.28;5033228;28;20029;-72
2022/07/14 08:12:09;;;;;;;4.50;1.77;;;;;;;24.90;nan;100827.97;5032989;28;20387;-73
2022/07/14 08:14:50;;;;;;;4.70;1.67;;;;;;;24.96;nan;100830.22;5033447;28;20400;-73
2022/07/14 08:17:21;;;;;;;5.55;1.67;;;;;;;25.07;nan;100806.47;5027608;28;20029;-72
2022/07/14 08:19:48;;;;;;;3.97;1.50;;;;;;;25.19;nan;100836.34;5033071;28;20168;-72
2022/07/14 08:22:14;;;;;;;8.27;2.30;;;;;;;25.29;nan;100818.31;5030867;28;20056;-70
2022/07/14 08:24:40;;;;;;;4.75;1.70;;;;;;;25.42;nan;100841.63;5033079;28;20072;-73
2022/07/14 08:27:05;;;;;;;12.45;1.60;;;;;;;;;;5032133;28;20503;-73
2022/07/14 08:29:31;;;;;;;6.28;1.75;;;;;;;25.47;nan;100811.81;5027295;28;20037;-72
2022/07/14 08:31:56;;;;;;;5.05;1.90;;;;;;;25.65;nan;100809.94;5031503;28;20040;-72
2022/07/14 08:34:22;;;;;;;5.75;1.80;;;;;;;25.72;nan;100820.28;5032603;28;20053;-70
2022/07/14 08:36:48;;;;;;;2.33;1.38;;;;;;;25.77;nan;100841.69;5048564;28;20072;-72
2022/07/14 08:39:15;;;;;;;3.63;1.25;;;;;;;25.88;nan;100743.13;5048262;28;20029;-72
2022/07/14 08:41:41;;;;;;;6.72;1.40;;;;;;;26.01;nan;100800.75;5032992;28;20032;-73
2022/07/14 08:44:08;;;;;;;1.65;1.30;;;;;;;26.05;nan;100847.56;5031151;28;20114;-71
2022/07/14 08:46:36;;;;;;;3.45;1.60;;;;;;;26.22;nan;100817.09;5032695;28;20030;-71
2022/07/14 08:49:05;;;;;;;5.00;1.40;;;;;;;26.18;nan;100784.53;5032338;28;20073;-72
2022/07/14 08:51:32;;;;;;;4.72;1.30;;;;;;;26.36;nan;100862.78;5033765;28;20052;-72
2022/07/14 08:53:58;;;;;;;4.95;1.48;;;;;;;26.49;nan;100824.81;5031300;28;20029;-72
2022/07/14 08:56:23;;;;;;;4.25;1.17;;;;;;;26.61;nan;100801.78;5034825;28;20068;-73
2022/07/14 08:58:49;;;;;;;2.10;1.33;;;;;;;26.62;nan;100811.44;5035775;28;20471;-74
2022/07/14 09:01:14;;;;;;;3.88;1.38;;;;;;;26.74;nan;100803.44;5034551;28;20034;-74
2022/07/14 09:03:39;;;;;;;4.65;1.52;;;;;;;26.82;nan;100816.16;5035533;28;20080;-73
2022/07/14 09:06:05;;;;;;;5.50;1.70;;;;;;;26.94;nan;100794.63;5034493;28;20095;-71
2022/07/14 09:08:53;;;;;;;4.38;1.65;;;;;;;27.00;nan;100802.53;5035529;28;20037;-73
2022/07/14 09:11:19;;;;;;;3.78;1.65;;;;;;;27.00;nan;100787.13;5036034;28;20372;-72
2022/07/14 09:13:44;;;;;;;6.38;1.40;;;;;;;27.10;nan;100786.72;5034525;28;20053;-70
2022/07/14 09:16:28;;;;;;;1.58;1.27;;;;;;;27.24;nan;100805.44;5036459;28;20452;-72
2022/07/14 09:19:14;;;;;;;4.75;1.15;;;;;;;27.34;nan;100791.56;5032581;28;20021;-73
2022/07/14 09:21:47;;;;;;;5.07;1.20;;;;;;;27.47;nan;100791.63;5035486;28;20893;-72
2022/07/14 09:24:14;;;;;;;3.58;1.38;;;;;;;27.50;nan;100794.47;5031194;28;20115;-73
2022/07/14 09:26:45;;;;;;;2.35;1.20;;;;;;;27.64;nan;100785.31;5035209;28;20541;-72
2022/07/14 09:29:24;;;;;;;3.25;1.25;;;;;;;27.73;nan;100748.94;5031970;28;20071;-72
2022/07/14 09:31:50;;;;;;;4.75;1.70;;;;;;;27.85;nan;100782.59;5049252;28;20431;-73
2022/07/14 09:34:33;;;;;;;6.07;1.30;;;;;;;27.90;nan;100812.97;5011395;28;20088;-72
2022/07/14 09:37:15;;;;;;;7.38;1.20;;;;;;;27.93;nan;100777.09;5030696;28;20029;-73
2022/07/14 09:39:57;;;;;;;3.67;1.30;;;;;;;28.13;nan;100753.00;5034928;28;20049;-74
2022/07/14 09:42:58;;;;;;;2.10;1.25;;;;;;;28.22;nan;100783.50;5034730;28;20057;-71
2022/07/14 09:45:38;;;;;;;4.65;1.33;;;;;;;28.23;nan;100778.88;5028696;28;20058;-73
2022/07/14 09:48:11;;;;;;;6.00;1.60;;;;;;;28.30;nan;100760.16;5035736;28;20033;-76
2022/07/14 09:50:48;;;;;;;4.13;1.38;;;;;;;28.41;nan;100783.75;5032322;28;20037;-66
2022/07/14 09:53:26;;;;;;;1.98;1.35;;;;;;;28.50;nan;100783.69;5037281;28;20487;-66
2022/07/14 09:55:56;;;;;;;4.47;1.30;;;;;;;28.61;nan;100776.72;5030581;28;20091;-68
2022/07/14 09:58:33;;;;;;;2.38;1.05;;;;;;;28.68;nan;100822.19;5048503;28;20029;-69
2022/07/14 10:01:04;;;;;;;3.53;1.45;;;;;;;28.77;nan;100776.03;5036280;28;20033;-72
2022/07/14 10:03:31;;;;;;;1.70;1.10;;;;;;;28.91;nan;100784.63;5036456;28;20091;-75
2022/07/14 10:06:00;;;;;;;2.95;1.40;;;;;;;28.97;nan;100774.31;5036808;28;20038;-73
2022/07/14 10:08:29;;;;;;;5.07;1.20;;;;;;;29.07;nan;100775.81;5032089;28;20073;-74
2022/07/14 10:10:57;;;;;;;3.95;1.10;;;;;;;29.12;nan;100751.97;5033470;28;20249;-74
2022/07/14 10:13:23;;;;;;;1.60;1.08;;;;;;;29.24;nan;100718.63;5048626;28;20503;-75
2022/07/14 10:15:51;;;;;;;2.08;1.33;;;;;;;29.33;nan;100751.00;5035678;28;20120;-74
2022/07/14 10:18:17;;;;;;;3.40;1.10;;;;;;;29.53;nan;100754.69;5033438;28;20148;-73
2022/07/14 10:20:47;;;;;;;1.85;0.95;;;;;;;29.64;nan;100759.28;5033320;28;20045;-74
2022/07/14 10:23:13;;;;;;;1.35;1.10;;;;;;;29.66;nan;100734.50;5031042;28;20052;-75
2022/07/14 10:25:39;;;;;;;3.97;1.15;;;;;;;29.79;nan;100768.63;5032702;28;20037;-75
2022/07/14 10:28:05;;;;;;;4.05;1.10;;;;;;;29.83;nan;100728.78;5034926;28;20529;-67
2022/07/14 10:30:41;;;;;;;1.52;1.10;;;;;;;29.92;nan;100761.22;5033534;28;20041;-76
2022/07/14 10:33:12;;;;;;;1.90;1.20;;;;;;;30.00;nan;100730.41;5034661;28;20069;-75
2022/07/14 10:36:01;;;;;;;1.45;1.00;;;;;;;30.09;nan;100732.94;5033800;28;20391;-75
2022/07/14 10:38:40;;;;;;;3.78;1.10;;;;;;;30.11;nan;100722.53;5033726;28;20041;-74
2022/07/14 10:41:15;;;;;;;7.28;1.10;;;;;;;30.17;nan;100720.31;5029986;28;20044;-67
2022/07/14 10:43:55;;;;;;;3.47;1.00;;;;;;;30.20;nan;100734.00;5038014;28;20061;-67
2022/07/14 10:46:39;;;;;;;3.28;1.30;;;;;;;30.14;nan;100700.09;5034452;28;20124;-68
2022/07/14 10:49:07;;;;;;;2.97;1.10;;;;;;;30.13;nan;100722.97;5030275;28;20033;-73
2022/07/14 10:51:41;;;;;;;6.63;1.10;;;;;;;30.24;nan;100677.84;5031872;28;20030;-74
2022/07/14 10:54:29;;;;;;;9.57;1.10;;;;;;;30.27;nan;100690.75;5029929;28;20040;-75
2022/07/14 10:57:09;;;;;;;6.63;1.70;;;;;;;30.23;nan;100662.66;5028153;28;20116;-74
2022/07/14 10:59:36;;;;;;;1.00;0.93;;;;;;;30.46;nan;100711.00;5032119;28;20038;-75
2022/07/14 11:02:11;;;;;;;4.43;1.00;;;;;;;30.49;nan;100710.28;5031646;28;20414;-74
2022/07/14 11:04:59;;;;;;;3.92;1.23;;;;;;;30.52;nan;100710.34;5045514;28;20037;-76
2022/07/14 11:07:47;;;;;;;1.52;1.10;;;;;;;30.62;nan;100713.66;5031496;28;20065;-76
2022/07/14 11:10:21;;;;;;;2.97;0.88;;;;;;;30.66;nan;100706.38;5027190;28;20033;-76
2022/07/14 11:13:04;;;;;;;1.77;1.00;;;;;;;30.68;nan;100683.16;5031995;28;20036;-74
2022/07/14 11:15:42;;;;;;;2.05;1.00;;;;;;;30.82;nan;100681.91;5027539;28;20132;-75
2022/07/14 11:18:26;;;;;;;1.40;0.85;;;;;;;30.89;nan;100673.91;5028633;28;20052;-74
2022/07/14 11:21:16;;;;;;;1.75;1.02;;;;;;;30.99;nan;100669.84;5044466;28;20048;-75
2022/07/14 11:23:51;;;;;;;1.45;0.80;;;;;;;31.13;nan;100667.41;5031648;28;20500;-76
2022/07/14 11:26:34;;;;;;;2.97;1.00;;;;;;;31.03;nan;100660.63;5031930;28;20025;-76
2022/07/14 11:29:04;;;;;;;3.97;1.15;;;;;;;31.13;nan;100649.16;5029709;28;20128;-75
2022/07/14 11:31:50;;;;;;;3.80;1.00;;;;;;;31.26;nan;100646.28;5029587;28;20037;-75
2022/07/14 11:37:04;;;;;;;1.67;1.02;;;;;;;31.38;nan;100657.78;5031214;28;20033;-76
2022/07/14 11:39:37;;;;;;;2.40;1.17;;;;;;;31.33;nan;100662.75;5034248;28;20033;-73
2022/07/14 11:42:09;;;;;;;2.75;0.90;;;;;;;31.31;nan;100665.03;5031201;28;20187;-74
2022/07/14 11:44:38;;;;;;;3.30;0.95;;;;;;;31.23;nan;100675.00;5032426;28;20044;-74
2022/07/14 11:47:05;;;;;;;2.67;0.98;;;;;;;31.30;nan;100671.63;5046872;28;20503;-67
2022/07/14 11:49:32;;;;;;;7.93;1.30;;;;;;;31.40;nan;100645.78;5029928;28;20124;-66
2022/07/14 11:51:59;;;;;;;2.38;0.93;;;;;;;31.41;nan;100636.47;5032441;28;20049;-72
2022/07/14 11:54:26;;;;;;;2.17;1.13;;;;;;;31.46;nan;100636.97;5030702;28;20137;-69
2022/07/14 11:57:03;;;;;;;9.00;1.10;;;;;;;31.51;nan;100647.56;5033860;28;20040;-66
2022/07/14 11:59:30;;;;;;;5.07;1.23;;;;;;;31.50;nan;100656.88;5025965;28;20743;-75
2022/07/14 12:02:09;;;;;;;0.90;0.88;;;;;;;31.67;nan;100622.16;5026878;28;20052;-75
2022/07/14 12:04:35;;;;;;;4.55;1.17;;;;;;;31.78;nan;100636.75;5039016;28;20033;-75
2022/07/14 12:07:00;;;;;;;4.55;1.10;;;;;;;31.92;nan;100617.13;5040069;28;20045;-76
2022/07/14 12:09:32;;;;;;;3.80;1.10;;;;;;;32.10;nan;100631.84;5029921;28;20480;-76
2022/07/14 12:11:58;;;;;;;1.17;1.08;;;;;;;32.26;nan;100618.06;5030004;28;20044;-75
2022/07/14 12:14:24;;;;;;;2.28;1.02;;;;;;;32.36;nan;100630.28;5031454;28;20052;-75
2022/07/14 12:16:50;;;;;;;2.22;0.90;;;;;;;32.42;nan;100618.69;5032238;28;20427;-70
2022/07/14 12:19:26;;;;;;;2.00;0.90;;;;;;;32.47;nan;100616.78;5031969;28;20400;-71
2022/07/14 12:22:00;;;;;;;5.90;1.20;;;;;;;32.53;nan;100607.16;5031498;28;20025;-71
2022/07/14 12:24:26;;;;;;;1.10;1.00;;;;;;;32.59;nan;100602.97;5031630;28;20499;-75
2022/07/14 12:26:52;;;;;;;1.15;0.93;;;;;;;32.56;nan;100599.03;5032449;28;20025;-75
2022/07/14 12:29:17;;;;;;;4.20;0.95;;;;;;;32.70;nan;100608.56;5029207;28;20048;-75
2022/07/14 12:31:43;;;;;;;8.13;1.50;;;;;;;32.75;nan;100619.91;5027499;28;20033;-75
2022/07/14 12:34:10;;;;;;;2.08;1.05;;;;;;;32.71;nan;100586.38;5031418;28;20029;-74
2022/07/14 12:36:36;;;;;;;4.32;1.10;;;;;;;32.91;nan;100621.66;5029375;28;20037;-76
2022/07/14 12:39:06;;;;;;;2.72;1.10;;;;;;;33.03;nan;100596.88;5031537;28;20037;-75
2022/07/14 12:41:32;;;;;;;2.72;1.05;;;;;;;33.06;nan;100596.13;5020794;28;20053;-75
2022/07/14 12:44:03;;;;;;;1.20;0.80;;;;;;;32.99;nan;100574.97;5025120;28;20746;-76